Time;durP1;ratioP1;P1;durP2;ratioP2;P2;SDS_P1;SDS_P2;PMS_P1;PMS_P2;Temp;Humidity;BMP_temperature;BMP_pressure;BME280_temperature;BME280_humidity;BME280_pressure;Samples;Min_cycle;Max_cycle;Signal;HPM_P1;HPM_P2
2021/04/07 00:01:54;;;;;;;2.20;1.03;;;;;;;;;;5038706;28;20497;-71
2021/04/07 00:04:21;;;;;;;5.97;2.00;;;;;;;;;;5038389;28;20485;-71
2021/04/07 00:06:49;;;;;;;3.47;1.70;;;;;;;;;;5038833;28;20460;-72
2021/04/07 00:09:17;;;;;;;4.17;2.37;;;;;;;;;;5038506;28;20462;-71
2021/04/07 00:11:44;;;;;;;2.70;1.00;;;;;;;;;;5038156;28;20488;-71
2021/04/07 00:14:11;;;;;;;7.50;3.20;;;;;;;;;;5038272;28;20455;-71
2021/04/07 00:16:38;;;;;;;3.73;1.60;;;;;;;;;;5038290;28;20480;-71
2021/04/07 00:19:10;;;;;;;5.43;1.53;;;;;;;;;;5019472;28;20490;-71
2021/04/07 00:21:37;;;;;;;10.23;2.30;;;;;;;;;;5017919;28;20461;-71
2021/04/07 00:24:06;;;;;;;8.70;1.57;;;;;;;;;;5018652;28;20536;-71
2021/04/07 00:26:35;;;;;;;4.50;1.30;;;;;;;;;;5018390;28;20497;-71
2021/04/07 00:29:02;;;;;;;5.40;1.67;;;;;;;;;;5018107;28;20757;-71
2021/04/07 00:31:29;;;;;;;6.00;1.03;;;;;;;;;;5018026;28;20862;-71
2021/04/07 00:33:56;;;;;;;7.03;1.20;;;;;;;;;;5018082;28;20509;-72
2021/04/07 00:36:25;;;;;;;13.20;2.53;;;;;;;;;;5017904;28;20461;-71
2021/04/07 00:38:52;;;;;;;6.70;2.00;;;;;;;;;;5018232;28;20571;-72
2021/04/07 00:41:19;;;;;;;7.60;1.87;;;;;;;;;;5017772;28;20490;-71
2021/04/07 00:43:46;;;;;;;3.40;1.70;;;;;;;;;;5017578;28;20500;-71
2021/04/07 00:46:14;;;;;;;3.50;0.90;;;;;;;;;;5017444;28;20762;-71
2021/04/07 00:48:41;;;;;;;7.80;1.47;;;;;;;;;;5017561;28;20556;-71
2021/04/07 00:51:09;;;;;;;4.87;1.70;;;;;;;;;;5017199;28;20461;-71
2021/04/07 00:53:38;;;;;;;7.20;1.70;;;;;;;;;;5017486;28;20476;-71
2021/04/07 00:56:06;;;;;;;5.27;1.80;;;;;;;;;;5018096;28;20558;-71
2021/04/07 00:58:35;;;;;;;3.57;1.70;;;;;;;;;;5017535;28;20805;-71
2021/04/07 01:01:02;;;;;;;6.93;1.93;;;;;;;;;;5017613;28;20725;-71
2021/04/07 01:03:30;;;;;;;9.47;1.83;;;;;;;;;;5031660;28;20572;-71
2021/04/07 01:05:57;;;;;;;5.57;5.00;;;;;;;;;;5037513;28;20546;-71
2021/04/07 01:08:25;;;;;;;2.10;1.33;;;;;;;;;;5037436;28;20467;-72
2021/04/07 01:10:54;;;;;;;4.47;1.80;;;;;;;;;;5036547;28;20456;-70
2021/04/07 01:13:22;;;;;;;4.90;1.83;;;;;;;;;;5021175;28;20453;-72
2021/04/07 01:15:53;;;;;;;3.83;1.20;;;;;;;;;;5037379;28;20457;-71
2021/04/07 01:18:20;;;;;;;15.33;2.30;;;;;;;;;;5034900;28;20471;-72
2021/04/07 01:20:47;;;;;;;2.67;0.70;;;;;;;;;;5042680;28;20816;-72
2021/04/07 01:23:15;;;;;;;5.80;1.27;;;;;;;;;;5057658;28;20506;-72
2021/04/07 01:25:45;;;;;;;3.77;1.90;;;;;;;;;;5042317;28;20476;-72
2021/04/07 01:28:12;;;;;;;3.33;1.70;;;;;;;;;;5036926;28;20471;-72
2021/04/07 01:30:46;;;;;;;5.07;1.57;;;;;;;;;;5026201;28;20453;-71
2021/04/07 01:33:21;;;;;;;4.70;1.30;;;;;;;;;;5019339;28;20539;-72
2021/04/07 01:35:49;;;;;;;4.90;1.87;;;;;;;;;;5023549;28;20551;-72
2021/04/07 01:38:16;;;;;;;11.87;3.20;;;;;;;;;;5036082;28;20592;-71
2021/04/07 01:40:46;;;;;;;7.53;2.53;;;;;;;;;;5037300;28;20479;-71
2021/04/07 01:43:17;;;;;;;5.97;2.53;;;;;;;;;;5036744;28;20610;-71
2021/04/07 01:45:45;;;;;;;3.70;2.50;;;;;;;;;;5036727;28;20768;-71
2021/04/07 01:48:13;;;;;;;7.20;2.57;;;;;;;;;;5030122;28;20543;-71
2021/04/07 01:50:41;;;;;;;12.07;3.43;;;;;;;;;;5028487;28;20459;-72
2021/04/07 01:53:09;;;;;;;4.47;2.40;;;;;;;;;;5029270;28;20559;-72
2021/04/07 01:55:38;;;;;;;11.50;2.47;;;;;;;;;;5034639;28;20468;-72
2021/04/07 01:58:07;;;;;;;9.00;4.03;;;;;;;;;;5033668;28;20452;-71
2021/04/07 02:00:35;;;;;;;12.93;4.77;;;;;;;;;;5032281;28;20863;-71
2021/04/07 02:03:04;;;;;;;8.20;4.50;;;;;;;;;;5039729;28;20534;-71
2021/04/07 02:05:32;;;;;;;9.03;3.90;;;;;;;;;;5043615;28;20837;-71
2021/04/07 02:08:00;;;;;;;6.80;4.10;;;;;;;;;;5052533;28;20443;-71
2021/04/07 02:10:28;;;;;;;9.50;4.90;;;;;;;;;;5040366;28;20456;-71
2021/04/07 02:12:56;;;;;;;8.27;4.40;;;;;;;;;;5040751;28;20449;-71
2021/04/07 02:15:25;;;;;;;5.57;3.53;;;;;;;;;;5041571;28;20522;-71
2021/04/07 02:17:53;;;;;;;14.00;5.07;;;;;;;;;;5044975;28;20629;-71
2021/04/07 02:20:21;;;;;;;8.13;2.80;;;;;;;;;;5060808;28;20491;-71
2021/04/07 02:22:50;;;;;;;7.90;4.53;;;;;;;;;;5060057;28;20485;-72
2021/04/07 02:25:18;;;;;;;8.20;2.30;;;;;;;;;;5060646;28;20464;-71
2021/04/07 02:27:45;;;;;;;9.40;5.23;;;;;;;;;;5060275;28;20534;-71
2021/04/07 02:30:14;;;;;;;8.87;3.13;;;;;;;;;;5060272;28;20547;-71
2021/04/07 02:32:43;;;;;;;5.17;2.43;;;;;;;;;;5060570;28;20450;-71
2021/04/07 02:35:11;;;;;;;6.57;3.47;;;;;;;;;;5060238;28;20463;-71
2021/04/07 02:37:41;;;;;;;8.03;2.00;;;;;;;;;;5043695;28;20456;-71
2021/04/07 02:40:08;;;;;;;6.73;3.27;;;;;;;;;;5040257;28;20915;-71
2021/04/07 02:42:36;;;;;;;6.83;1.80;;;;;;;;;;5040102;28;20536;-71
2021/04/07 02:45:13;;;;;;;7.00;3.07;;;;;;;;;;5040050;28;20625;-72
2021/04/07 02:47:41;;;;;;;3.43;1.80;;;;;;;;;;5040336;28;20452;-71
2021/04/07 02:50:10;;;;;;;4.63;2.73;;;;;;;;;;5040142;28;20493;-71
2021/04/07 02:52:38;;;;;;;6.80;1.70;;;;;;;;;;5039499;28;20448;-71
2021/04/07 02:55:09;;;;;;;7.90;2.67;;;;;;;;;;5039731;28;20463;-72
2021/04/07 02:57:37;;;;;;;4.53;1.77;;;;;;;;;;5039632;28;20454;-72
2021/04/07 03:00:05;;;;;;;5.13;2.37;;;;;;;;;;5040066;28;20452;-71
2021/04/07 03:02:32;;;;;;;6.97;1.97;;;;;;;;;;5040334;28;20928;-71
2021/04/07 03:04:59;;;;;;;8.83;3.97;;;;;;;;;;5039804;28;20460;-72
2021/04/07 03:07:28;;;;;;;3.07;1.60;;;;;;;;;;5040684;28;20524;-71
2021/04/07 03:09:56;;;;;;;4.53;2.20;;;;;;;;;;5041151;28;20473;-71
2021/04/07 03:12:23;;;;;;;7.70;3.60;;;;;;;;;;5039132;28;20464;-72
2021/04/07 03:14:51;;;;;;;5.23;2.40;;;;;;;;;;5038544;28;20503;-71
2021/04/07 03:17:18;;;;;;;4.07;2.20;;;;;;;;;;5039468;28;20533;-71
2021/04/07 03:19:45;;;;;;;4.03;2.27;;;;;;;;;;5039043;28;20487;-71
2021/04/07 03:22:13;;;;;;;4.63;2.33;;;;;;;;;;5039219;28;20757;-71
2021/04/07 03:24:41;;;;;;;14.30;3.17;;;;;;;;;;5038711;28;20497;-71
2021/04/07 03:27:09;;;;;;;5.60;1.90;;;;;;;;;;5038809;28;20737;-70
2021/04/07 03:29:39;;;;;;;5.40;1.80;;;;;;;;;;5038220;28;20464;-70
2021/04/07 03:32:07;;;;;;;5.47;2.13;;;;;;;;;;5040851;28;20445;-70
2021/04/07 03:34:37;;;;;;;10.63;3.97;;;;;;;;;;5038679;28;20489;-70
2021/04/07 03:37:12;;;;;;;6.63;3.20;;;;;;;;;;5021403;28;20534;-71
2021/04/07 03:39:49;;;;;;;11.13;3.13;;;;;;;;;;5038429;28;20466;-71
2021/04/07 03:42:19;;;;;;;8.10;4.70;;;;;;;;;;5039360;28;20513;-70
2021/04/07 03:44:47;;;;;;;15.03;4.77;;;;;;;;;;5039073;28;21076;-71
2021/04/07 03:47:16;;;;;;;4.00;2.83;;;;;;;;;;5039823;28;20463;-71
2021/04/07 03:49:45;;;;;;;7.30;3.40;;;;;;;;;;5038412;28;20447;-71
2021/04/07 03:52:21;;;;;;;10.73;3.93;;;;;;;;;;5039084;28;20463;-70
2021/04/07 03:55:03;;;;;;;9.27;3.53;;;;;;;;;;5038644;28;20617;-71
2021/04/07 03:57:36;;;;;;;6.40;2.80;;;;;;;;;;5038493;28;20487;-70
2021/04/07 04:00:04;;;;;;;5.10;2.50;;;;;;;;;;5039189;28;20456;-72
2021/04/07 04:02:32;;;;;;;11.20;4.30;;;;;;;;;;5038671;28;20493;-71
2021/04/07 04:05:13;;;;;;;9.83;3.90;;;;;;;;;;5035753;28;20507;-70
2021/04/07 04:07:41;;;;;;;8.57;4.80;;;;;;;;;;5019432;28;20463;-71
2021/04/07 04:10:10;;;;;;;6.57;3.00;;;;;;;;;;5021096;28;20768;-71
2021/04/07 04:12:37;;;;;;;4.97;2.17;;;;;;;;;;5038040;28;20445;-70
2021/04/07 04:15:06;;;;;;;8.60;3.50;;;;;;;;;;5037925;28;20501;-70
2021/04/07 04:17:33;;;;;;;6.20;2.93;;;;;;;;;;5037189;28;20453;-72
2021/04/07 04:20:01;;;;;;;12.50;4.03;;;;;;;;;;5037285;28;20556;-71
2021/04/07 04:22:29;;;;;;;12.73;5.57;;;;;;;;;;5030173;28;20523;-71
2021/04/07 04:24:56;;;;;;;8.80;4.30;;;;;;;;;;5035514;28;20802;-71
2021/04/07 04:27:31;;;;;;;7.20;3.50;;;;;;;;;;5018340;28;20736;-71
2021/04/07 04:30:00;;;;;;;22.33;6.27;;;;;;;;;;5017657;28;20464;-72
2021/04/07 04:32:30;;;;;;;8.50;3.53;;;;;;;;;;5017662;28;20740;-72
2021/04/07 04:35:02;;;;;;;13.17;5.80;;;;;;;;;;5017998;28;20555;-71
2021/04/07 04:37:41;;;;;;;4.90;2.60;;;;;;;;;;5018660;28;20462;-71
2021/04/07 04:40:20;;;;;;;21.60;4.27;;;;;;;;;;5018283;28;20440;-71
2021/04/07 04:42:49;;;;;;;9.07;6.00;;;;;;;;;;5017294;28;20497;-71
2021/04/07 04:45:20;;;;;;;10.13;5.93;;;;;;;;;;5018206;28;20464;-71
2021/04/07 04:47:52;;;;;;;6.13;3.50;;;;;;;;;;5017926;28;20459;-71
2021/04/07 04:50:30;;;;;;;10.87;5.63;;;;;;;;;;5018265;28;20460;-70
2021/04/07 04:53:02;;;;;;;14.47;6.87;;;;;;;;;;5018072;28;20844;-70
2021/04/07 04:55:35;;;;;;;7.83;3.60;;;;;;;;;;5022496;28;20481;-71
2021/04/07 04:58:19;;;;;;;9.80;5.33;;;;;;;;;;5038446;28;20460;-70
2021/04/07 05:00:53;;;;;;;8.73;4.20;;;;;;;;;;5038055;28;20868;-71
2021/04/07 05:03:23;;;;;;;11.20;4.00;;;;;;;;;;5038425;28;20519;-71
2021/04/07 05:05:51;;;;;;;9.00;4.77;;;;;;;;;;5038363;28;20869;-71
2021/04/07 05:08:27;;;;;;;8.80;5.20;;;;;;;;;;5037175;28;20466;-71
2021/04/07 05:10:57;;;;;;;15.60;7.33;;;;;;;;;;5038225;28;20463;-71
2021/04/07 05:13:27;;;;;;;16.80;6.97;;;;;;;;;;5037202;28;20461;-71
2021/04/07 05:15:55;;;;;;;7.67;3.17;;;;;;;;;;5036931;28;20483;-71
2021/04/07 05:18:24;;;;;;;10.07;4.33;;;;;;;;;;5037366;28;20912;-71
2021/04/07 05:20:52;;;;;;;11.20;3.80;;;;;;;;;;5035916;28;20455;-71
2021/04/07 05:23:21;;;;;;;6.50;3.53;;;;;;;;;;5037906;28;20483;-71
2021/04/07 05:25:52;;;;;;;4.93;2.43;;;;;;;;;;5036648;28;20452;-70
2021/04/07 05:28:21;;;;;;;6.93;2.03;;;;;;;;;;5035964;28;20448;-72
2021/04/07 05:31:00;;;;;;;11.17;3.53;;;;;;;;;;5028479;28;20461;-72
2021/04/07 05:33:37;;;;;;;10.07;5.23;;;;;;;;;;5025349;28;20463;-72
2021/04/07 05:36:09;;;;;;;6.07;3.17;;;;;;;;;;5015505;28;20478;-72
2021/04/07 05:38:36;;;;;;;10.23;3.00;;;;;;;;;;5015599;28;20453;-72
2021/04/07 05:41:08;;;;;;;10.30;3.33;;;;;;;;;;5016645;28;20448;-70
2021/04/07 05:43:37;;;;;;;9.87;3.20;;;;;;;;;;5042679;28;20514;-76
2021/04/07 05:46:06;;;;;;;10.03;5.50;;;;;;;;;;5057067;28;20492;-70
2021/04/07 05:48:34;;;;;;;10.80;3.60;;;;;;;;;;5055536;28;20769;-70
2021/04/07 05:51:02;;;;;;;4.67;2.37;;;;;;;;;;5057080;28;20508;-72
2021/04/07 05:53:30;;;;;;;12.43;4.33;;;;;;;;;;5056465;28;20538;-70
2021/04/07 05:55:59;;;;;;;6.57;2.17;;;;;;;;;;5027739;28;20464;-72
2021/04/07 05:58:27;;;;;;;7.60;3.77;;;;;;;;;;5015729;28;20619;-71
2021/04/07 06:00:55;;;;;;;9.93;3.17;;;;;;;;;;5016067;28;20465;-71
2021/04/07 06:03:23;;;;;;;14.93;3.80;;;;;;;;;;5015193;28;20824;-72
2021/04/07 06:05:51;;;;;;;9.10;3.47;;;;;;;;;;5016231;28;20536;-72
2021/04/07 06:08:22;;;;;;;17.53;4.90;;;;;;;;;;5015077;28;20444;-71
2021/04/07 06:10:50;;;;;;;11.83;4.20;;;;;;;;;;5014940;28;20480;-72
2021/04/07 06:13:18;;;;;;;10.00;4.33;;;;;;;;;;5014221;28;20929;-72
2021/04/07 06:15:45;;;;;;;5.50;3.10;;;;;;;;;;5013809;28;20954;-71
2021/04/07 06:18:14;;;;;;;5.67;2.80;;;;;;;;;;5015164;28;20456;-71
2021/04/07 06:20:45;;;;;;;10.80;3.20;;;;;;;;;;5015528;28;20460;-72
2021/04/07 06:23:13;;;;;;;6.23;2.43;;;;;;;;;;5014951;28;20497;-72
2021/04/07 06:25:43;;;;;;;4.17;2.33;;;;;;;;;;5014436;28;20827;-72
2021/04/07 06:28:11;;;;;;;13.53;6.30;;;;;;;;;;5015077;28;20828;-72
2021/04/07 06:30:42;;;;;;;12.00;3.70;;;;;;;;;;5016571;28;20477;-71
2021/04/07 06:33:16;;;;;;;6.17;2.50;;;;;;;;;;5015088;28;20486;-71
2021/04/07 06:35:46;;;;;;;6.30;3.67;;;;;;;;;;5025303;28;20533;-71
2021/04/07 06:38:18;;;;;;;3.20;2.00;;;;;;;;;;5034999;28;20442;-72
2021/04/07 06:40:46;;;;;;;3.70;1.43;;;;;;;;;;5041344;28;20560;-71
2021/04/07 06:43:14;;;;;;;9.40;2.80;;;;;;;;;;5041923;28;20484;-72
2021/04/07 06:45:41;;;;;;;7.57;3.90;;;;;;;;;;5050393;28;20647;-71
2021/04/07 06:48:10;;;;;;;10.43;5.67;;;;;;;;;;5055435;28;20501;-71
2021/04/07 06:50:37;;;;;;;7.23;3.37;;;;;;;;;;5042167;28;20463;-71
2021/04/07 06:53:09;;;;;;;7.20;3.67;;;;;;;;;;5037785;28;20542;-71
2021/04/07 06:55:36;;;;;;;3.50;1.73;;;;;;;;;;5038090;28;20465;-71
2021/04/07 06:58:04;;;;;;;5.87;2.70;;;;;;;;;;5038944;28;20474;-71
2021/04/07 07:00:32;;;;;;;6.40;2.30;;;;;;;;;;5038875;28;20464;-71
2021/04/07 07:03:01;;;;;;;10.27;3.30;;;;;;;;;;5038132;28;20535;-71
2021/04/07 07:05:29;;;;;;;7.23;2.80;;;;;;;;;;5038173;28;20533;-72
2021/04/07 07:08:00;;;;;;;5.40;2.73;;;;;;;;;;5038017;28;20492;-71
2021/04/07 07:10:35;;;;;;;3.30;2.03;;;;;;;;;;5037429;28;20461;-72
2021/04/07 07:13:02;;;;;;;3.93;1.77;;;;;;;;;;5038346;28;21008;-72
2021/04/07 07:15:30;;;;;;;9.17;2.97;;;;;;;;;;5038164;28;20860;-72
2021/04/07 07:17:58;;;;;;;6.10;3.90;;;;;;;;;;5032378;28;20535;-71
2021/04/07 07:20:31;;;;;;;6.03;1.77;;;;;;;;;;5035480;28;20864;-71
2021/04/07 07:23:03;;;;;;;4.97;2.70;;;;;;;;;;5018631;28;20584;-72
2021/04/07 07:25:31;;;;;;;11.70;3.23;;;;;;;;;;5017962;28;20469;-71
2021/04/07 07:28:00;;;;;;;2.60;1.70;;;;;;;;;;5018271;28;20521;-71
2021/04/07 07:30:42;;;;;;;3.83;2.07;;;;;;;;;;5032152;28;20465;-72
2021/04/07 07:33:22;;;;;;;6.53;2.53;;;;;;;;;;5038698;28;20850;-72
2021/04/07 07:35:51;;;;;;;4.07;2.67;;;;;;;;;;5040147;28;20478;-71
2021/04/07 07:38:27;;;;;;;2.53;1.30;;;;;;;;;;5022088;28;20939;-71
2021/04/07 07:41:01;;;;;;;9.80;2.30;;;;;;;;;;5033545;28;20463;-71
2021/04/07 07:43:49;;;;;;;9.80;2.53;;;;;;;;;;5038349;28;20568;-71
2021/04/07 07:46:31;;;;;;;10.67;6.90;;;;;;;;;;5033590;28;20458;-71
2021/04/07 07:49:27;;;;;;;4.50;1.80;;;;;;;;;;5034774;28;20476;-70
2021/04/07 07:51:57;;;;;;;8.10;4.83;;;;;;;;;;5028901;28;20853;-71
2021/04/07 07:54:26;;;;;;;3.47;2.23;;;;;;;;;;5016604;28;20487;-71
2021/04/07 07:56:54;;;;;;;6.00;2.67;;;;;;;;;;5017729;28;20508;-71
2021/04/07 07:59:28;;;;;;;3.87;2.27;;;;;;;;;;5024399;28;20461;-70
2021/04/07 08:01:56;;;;;;;7.13;3.23;;;;;;;;;;5030079;28;21017;-70
2021/04/07 08:04:23;;;;;;;4.37;1.70;;;;;;;;;;5031613;28;20488;-71
2021/04/07 08:06:54;;;;;;;7.10;2.57;;;;;;;;;;5026288;28;20451;-71
2021/04/07 08:09:21;;;;;;;5.87;1.50;;;;;;;;;;5024402;28;20458;-71
2021/04/07 08:12:13;;;;;;;6.80;2.57;;;;;;;;;;5023395;28;21083;-71
2021/04/07 08:18:02;;;;;;;5.60;2.07;;;;;;;;;;5034812;28;20539;-71
2021/04/07 08:20:37;;;;;;;12.63;2.40;;;;;;;;;;5039425;28;20496;-72
2021/04/07 08:26:07;;;;;;;5.50;3.13;;;;;;;;;;5022224;28;20462;-71
2021/04/07 08:28:41;;;;;;;2.50;1.37;;;;;;;;;;5037280;28;20447;-71
2021/04/07 08:34:27;;;;;;;7.20;2.60;;;;;;;;;;5035968;28;20618;-72
2021/04/07 08:37:31;;;;;;;8.63;3.00;;;;;;;;;;5036864;28;20482;-72
2021/04/07 08:40:13;;;;;;;2.47;1.33;;;;;;;;;;5033281;28;20533;-73
2021/04/07 08:42:41;;;;;;;2.70;1.67;;;;;;;;;;5036740;28;20467;-70
2021/04/07 08:45:09;;;;;;;2.53;1.30;;;;;;;;;;5038417;28;20457;-71
2021/04/07 08:47:44;;;;;;;5.53;3.00;;;;;;;;;;5036312;28;20772;-71
2021/04/07 08:50:13;;;;;;;5.47;3.40;;;;;;;;;;5038080;28;20461;-71
2021/04/07 08:52:45;;;;;;;6.57;2.70;;;;;;;;;;5025591;28;21130;-71
2021/04/07 08:55:17;;;;;;;5.30;3.83;;;;;;;;;;5017015;28;20556;-71
2021/04/07 08:57:45;;;;;;;4.77;2.33;;;;;;;;;;5022890;28;20550;-72
2021/04/07 09:00:13;;;;;;;5.77;3.00;;;;;;;;;;5025114;28;20466;-72
2021/04/07 09:03:01;;;;;;;3.60;1.80;;;;;;;;;;5017903;28;20459;-71
2021/04/07 09:05:30;;;;;;;3.03;2.13;;;;;;;;;;5034965;28;20883;-72
2021/04/07 09:08:02;;;;;;;5.43;2.60;;;;;;;;;;5039010;28;20454;-71
2021/04/07 09:10:41;;;;;;;5.90;2.73;;;;;;;;;;5043278;28;20462;-72
2021/04/07 09:13:10;;;;;;;3.43;2.33;;;;;;;;;;5046287;28;20853;-71
2021/04/07 09:15:47;;;;;;;7.87;2.87;;;;;;;;;;5028220;28;20549;-70
2021/04/07 09:18:16;;;;;;;5.07;2.97;;;;;;;;;;5024811;28;20703;-71
2021/04/07 09:20:45;;;;;;;2.17;1.83;;;;;;;;;;5038655;28;20723;-71
2021/04/07 09:23:35;;;;;;;4.67;2.70;;;;;;;;;;5016839;28;20608;-71
2021/04/07 09:26:09;;;;;;;4.50;3.20;;;;;;;;;;5017565;28;20941;-71
2021/04/07 09:28:38;;;;;;;5.00;3.50;;;;;;;;;;5017729;28;20493;-71
2021/04/07 09:31:07;;;;;;;6.30;2.80;;;;;;;;;;5016550;28;20469;-71
2021/04/07 09:33:37;;;;;;;3.20;2.10;;;;;;;;;;5018649;28;20453;-71
2021/04/07 09:36:05;;;;;;;3.40;1.90;;;;;;;;;;5017447;28;20474;-71
2021/04/07 09:38:40;;;;;;;4.80;2.27;;;;;;;;;;5016860;28;20457;-71
2021/04/07 09:47:33;;;;;;;3.50;2.17;;;;;;;;;;5032346;28;20989;-72
2021/04/07 09:50:22;;;;;;;18.13;16.67;;;;;;;;;;5038296;28;20850;-72
2021/04/07 09:52:52;;;;;;;3.03;2.43;;;;;;;;;;5037825;28;20548;-71
2021/04/07 09:55:36;;;;;;;5.60;2.67;;;;;;;;;;5038243;28;20526;-70
2021/04/07 09:58:09;;;;;;;7.60;1.70;;;;;;;;;;5037978;28;20763;-71
2021/04/07 10:00:56;;;;;;;4.50;4.10;;;;;;;;;;5036582;28;20456;-70
2021/04/07 10:03:39;;;;;;;4.00;2.53;;;;;;;;;;5016928;28;20492;-71
2021/04/07 10:06:23;;;;;;;9.97;8.43;;;;;;;;;;5018809;28;20489;-70
2021/04/07 10:09:10;;;;;;;4.83;3.37;;;;;;;;;;5034656;28;20461;-70
2021/04/07 10:12:08;;;;;;;3.23;2.13;;;;;;;;;;5034405;28;20457;-70
2021/04/07 10:14:38;;;;;;;5.80;4.10;;;;;;;;;;5034900;28;20543;-70
2021/04/07 10:17:28;;;;;;;2.50;1.47;;;;;;;;;;5016099;28;20898;-71
2021/04/07 10:22:46;;;;;;;4.63;4.20;;;;;;;;;;4999795;28;20447;-71
2021/04/07 10:25:33;;;;;;;2.27;1.43;;;;;;;;;;5019197;28;20469;-71
2021/04/07 10:28:06;;;;;;;7.40;1.70;;;;;;;;;;5019766;28;20466;-71
2021/04/07 10:30:51;;;;;;;2.70;1.60;;;;;;;;;;5021092;28;20459;-71
2021/04/07 10:33:27;;;;;;;2.73;1.40;;;;;;;;;;5019698;28;20452;-71
2021/04/07 10:36:03;;;;;;;4.50;1.83;;;;;;;;;;5039301;28;20463;-70
2021/04/07 10:38:50;;;;;;;4.23;3.63;;;;;;;;;;5055626;28;20913;-71
2021/04/07 10:41:29;;;;;;;3.17;2.27;;;;;;;;;;5019929;28;20471;-71
2021/04/07 10:46:57;;;;;;;6.33;4.43;;;;;;;;;;5021803;28;20469;-71
2021/04/07 10:53:01;;;;;;;5.97;3.43;;;;;;;;;;5010465;28;20451;-71
2021/04/07 10:56:26;;;;;;;5.50;3.13;;;;;;;;;;5031655;28;20455;-72
2021/04/07 11:20:46;;;;;;;4.97;3.90;;;;;;;;;;5036847;28;20451;-71
2021/04/07 11:23:15;;;;;;;4.33;3.10;;;;;;;;;;5034965;28;20843;-71
2021/04/07 11:25:58;;;;;;;4.43;2.03;;;;;;;;;;5039525;28;20504;-71
2021/04/07 11:28:26;;;;;;;3.77;3.13;;;;;;;;;;5037509;28;20521;-71
2021/04/07 11:33:57;;;;;;;2.10;1.33;;;;;;;;;;5029660;28;20439;-70
2021/04/07 11:36:44;;;;;;;2.83;1.80;;;;;;;;;;5039305;28;20466;-71
2021/04/07 11:39:25;;;;;;;8.37;7.63;;;;;;;;;;5048373;28;20453;-70
2021/04/07 11:42:06;;;;;;;4.30;3.00;;;;;;;;;;5059545;28;20943;-70
2021/04/07 11:44:41;;;;;;;4.17;2.27;;;;;;;;;;5058819;28;20810;-71
2021/04/07 11:49:59;;;;;;;5.07;4.07;;;;;;;;;;5014806;28;20899;-71
2021/04/07 11:52:31;;;;;;;6.07;2.77;;;;;;;;;;5020108;28;20541;-70
2021/04/07 11:55:09;;;;;;;4.00;2.43;;;;;;;;;;5019663;28;20455;-70
2021/04/07 11:57:54;;;;;;;3.70;2.33;;;;;;;;;;5036228;28;20504;-72
2021/04/07 12:00:32;;;;;;;4.30;2.13;;;;;;;;;;5054049;28;20556;-73
2021/04/07 12:03:03;;;;;;;5.13;3.03;;;;;;;;;;5036729;28;20453;-72
2021/04/07 12:05:52;;;;;;;4.43;3.20;;;;;;;;;;5035818;28;20457;-71
2021/04/07 12:08:35;;;;;;;3.10;1.80;;;;;;;;;;5008723;28;20460;-70
2021/04/07 12:11:22;;;;;;;5.70;3.90;;;;;;;;;;5017895;28;20531;-70
2021/04/07 12:16:59;;;;;;;6.13;5.50;;;;;;;;;;5054292;28;21111;-72
2021/04/07 12:22:20;;;;;;;2.47;1.13;;;;;;;;;;5037685;28;20583;-71
2021/04/07 12:24:51;;;;;;;2.17;1.00;;;;;;;;;;5045748;28;20528;-71
2021/04/07 12:30:10;;;;;;;3.20;1.67;;;;;;;;;;5053818;28;21045;-72
2021/04/07 12:32:38;;;;;;;2.47;1.40;;;;;;;;;;5048657;28;20724;-73
2021/04/07 12:35:11;;;;;;;3.07;1.67;;;;;;;;;;5055975;28;20457;-71
2021/04/07 12:37:41;;;;;;;3.93;2.20;;;;;;;;;;5045813;28;20506;-71
2021/04/07 12:40:13;;;;;;;6.80;2.37;;;;;;;;;;5048017;28;20451;-72
2021/04/07 12:42:40;;;;;;;2.53;1.33;;;;;;;;;;5043236;28;20469;-71
2021/04/07 12:45:09;;;;;;;4.77;1.80;;;;;;;;;;5047117;28;20741;-72
2021/04/07 12:47:42;;;;;;;3.13;1.67;;;;;;;;;;5046390;28;20463;-73
2021/04/07 12:50:20;;;;;;;5.90;2.50;;;;;;;;;;5054775;28;20465;-72
2021/04/07 12:52:47;;;;;;;2.10;1.30;;;;;;;;;;5039787;28;20461;-71
2021/04/07 12:55:19;;;;;;;5.27;2.20;;;;;;;;;;5036734;28;20463;-73
2021/04/07 12:57:46;;;;;;;4.23;2.20;;;;;;;;;;5039160;28;20486;-72
2021/04/07 13:00:14;;;;;;;3.23;1.60;;;;;;;;;;5058926;28;20847;-72
2021/04/07 13:02:42;;;;;;;3.73;1.97;;;;;;;;;;5057409;28;20515;-74
2021/04/07 13:05:45;;;;;;;3.07;1.77;;;;;;;;;;5057441;28;20756;-72
2021/04/07 13:14:23;;;;;;;3.80;2.70;;;;;;;;;;5042718;28;20589;-72
2021/04/07 13:16:57;;;;;;;2.37;1.20;;;;;;;;;;5042016;28;20524;-72
2021/04/07 13:19:32;;;;;;;4.70;1.93;;;;;;;;;;5036842;28;20454;-72
2021/04/07 13:22:19;;;;;;;4.40;3.40;;;;;;;;;;5035598;28;20458;-72
2021/04/07 13:24:51;;;;;;;2.33;1.27;;;;;;;;;;5026614;28;20488;-70
2021/04/07 13:27:26;;;;;;;7.13;1.97;;;;;;;;;;5019133;28;20451;-72
2021/04/07 13:30:05;;;;;;;;;;;;;;;;;;;;;
2021/04/07 13:32:48;;;;;;;3.00;1.80;;;;;;;;;;5015133;28;20725;-71
2021/04/07 13:35:20;;;;;;;1.90;1.20;;;;;;;;;;5019818;28;20481;-71
2021/04/07 13:38:00;;;;;;;2.80;1.73;;;;;;;;;;5035795;28;20458;-71
2021/04/07 13:40:35;;;;;;;3.13;1.50;;;;;;;;;;5034933;28;20443;-71
2021/04/07 13:45:52;;;;;;;2.70;1.27;;;;;;;;;;5032856;28;20430;-71
2021/04/07 13:48:26;;;;;;;2.20;1.03;;;;;;;;;;5035004;28;20491;-72
2021/04/07 13:51:05;;;;;;;3.67;1.87;;;;;;;;;;5035199;28;20467;-71
2021/04/07 13:56:34;;;;;;;3.70;1.73;;;;;;;;;;5031212;28;20570;-71
2021/04/07 13:59:17;;;;;;;5.03;1.70;;;;;;;;;;5039898;28;20458;-72
2021/04/07 14:01:59;;;;;;;2.90;1.50;;;;;;;;;;5042063;28;20529;-71
2021/04/07 14:04:26;;;;;;;5.17;1.63;;;;;;;;;;5037451;28;20661;-71
2021/04/07 14:06:58;;;;;;;3.73;1.17;;;;;;;;;;5040592;28;20545;-71
2021/04/07 14:09:30;;;;;;;3.97;1.37;;;;;;;;;;5038108;28;20548;-71
2021/04/07 14:12:00;;;;;;;3.87;1.20;;;;;;;;;;5037922;28;21002;-71
2021/04/07 14:14:28;;;;;;;2.57;0.93;;;;;;;;;;5039094;28;20719;-72
2021/04/07 14:17:07;;;;;;;4.10;1.47;;;;;;;;;;5037643;28;20544;-72
2021/04/07 14:19:40;;;;;;;3.17;1.40;;;;;;;;;;5037784;28;20462;-72
2021/04/07 14:22:09;;;;;;;4.27;1.20;;;;;;;;;;5037112;28;20785;-70
2021/04/07 14:24:55;;;;;;;3.77;1.40;;;;;;;;;;5039086;28;20483;-71
2021/04/07 14:27:29;;;;;;;4.30;3.27;;;;;;;;;;5038327;28;20523;-72
2021/04/07 14:30:07;;;;;;;9.87;9.23;;;;;;;;;;5037414;28;20649;-72
2021/04/07 14:32:40;;;;;;;5.00;1.33;;;;;;;;;;5036261;28;20467;-72
2021/04/07 14:38:57;;;;;;;6.57;3.30;;;;;;;;;;5036385;28;20453;-71
2021/04/07 14:41:41;;;;;;;8.67;3.73;;;;;;;;;;5038956;28;20474;-71
2021/04/07 14:47:09;;;;;;;6.17;3.00;;;;;;;;;;5039855;28;20689;-71
2021/04/07 14:49:57;;;;;;;;;;;;;;;;;;;;;
2021/04/07 14:55:28;;;;;;;6.47;5.23;;;;;;;;;;5037060;28;20472;-72
2021/04/07 14:57:58;;;;;;;3.07;1.47;;;;;;;;;;5038917;28;20466;-71
2021/04/07 15:00:47;;;;;;;11.40;3.60;;;;;;;;;;5037570;28;20721;-70
2021/04/07 15:03:33;;;;;;;10.10;3.67;;;;;;;;;;5034967;28;20494;-69
2021/04/07 15:06:17;;;;;;;5.33;3.93;;;;;;;;;;5038013;28;20439;-70
2021/04/07 15:09:18;;;;;;;5.33;1.70;;;;;;;;;;5022437;28;20472;-72
2021/04/07 15:12:28;;;;;;;5.27;2.60;;;;;;;;;;5024720;28;20448;-70
2021/04/07 15:21:21;;;;;;;2.40;1.20;;;;;;;;;;4961229;29;20459;-71
2021/04/07 15:24:40;;;;;;;6.13;2.03;;;;;;;;;;5033330;28;20785;-72
2021/04/07 15:27:14;;;;;;;3.63;1.67;;;;;;;;;;5060111;28;20462;-72
2021/04/07 15:30:06;;;;;;;10.20;1.93;;;;;;;;;;5060043;28;20446;-72
2021/04/07 15:32:49;;;;;;;4.20;1.43;;;;;;;;;;5062050;28;20489;-71
2021/04/07 15:38:33;;;;;;;3.83;1.33;;;;;;;;;;5058056;28;20432;-70
2021/04/07 15:41:18;;;;;;;6.20;1.33;;;;;;;;;;5059723;28;20449;-71
2021/04/07 15:47:00;;;;;;;5.10;1.13;;;;;;;;;;5040240;28;20457;-72
2021/04/07 15:49:43;;;;;;;7.20;2.20;;;;;;;;;;5059945;28;20489;-71
2021/04/07 15:52:44;;;;;;;3.80;1.67;;;;;;;;;;5040656;28;20533;-70
2021/04/07 15:55:25;;;;;;;1.83;0.97;;;;;;;;;;5056667;28;20454;-72
2021/04/07 15:58:19;;;;;;;2.67;1.60;;;;;;;;;;5031284;28;20448;-71
2021/04/07 16:00:47;;;;;;;4.80;1.53;;;;;;;;;;5021553;28;20469;-73
2021/04/07 16:03:26;;;;;;;1.97;0.80;;;;;;;;;;5037030;28;20528;-71
2021/04/07 16:06:18;;;;;;;4.80;1.20;;;;;;;;;;5038827;28;20532;-71
2021/04/07 16:08:48;;;;;;;3.20;1.17;;;;;;;;;;5039040;28;20534;-70
2021/04/07 16:11:33;;;;;;;1.83;1.00;;;;;;;;;;5037988;28;20500;-71
2021/04/07 16:14:10;;;;;;;3.83;0.80;;;;;;;;;;5038444;28;20454;-70
2021/04/07 16:16:50;;;;;;;1.93;0.70;;;;;;;;;;5035493;28;20505;-72
2021/04/07 16:19:43;;;;;;;3.20;1.33;;;;;;;;;;5038063;28;20458;-71
2021/04/07 16:22:28;;;;;;;4.30;2.10;;;;;;;;;;5037463;28;20434;-71
2021/04/07 16:25:08;;;;;;;3.90;0.57;;;;;;;;;;5036462;28;20486;-71
2021/04/07 16:27:52;;;;;;;2.90;0.60;;;;;;;;;;5036880;28;20550;-71
2021/04/07 16:30:33;;;;;;;5.73;1.00;;;;;;;;;;5017688;28;20552;-71
2021/04/07 16:33:13;;;;;;;1.93;0.87;;;;;;;;;;5016082;28;20462;-70
2021/04/07 16:38:32;;;;;;;2.93;0.87;;;;;;;;;;5017671;28;20444;-70
2021/04/07 16:41:00;;;;;;;2.03;1.03;;;;;;;;;;5015993;28;20457;-71
2021/04/07 16:43:41;;;;;;;7.70;1.23;;;;;;;;;;5017681;28;20455;-71
2021/04/07 16:46:32;;;;;;;2.23;1.77;;;;;;;;;;5016073;28;20766;-71
2021/04/07 16:49:01;;;;;;;2.40;1.10;;;;;;;;;;5024256;28;20459;-70
2021/04/07 16:54:31;;;;;;;3.63;1.33;;;;;;;;;;5007386;28;20769;-71
2021/04/07 16:57:02;;;;;;;1.67;0.73;;;;;;;;;;5021868;28;20509;-71
2021/04/07 17:02:16;;;;;;;3.07;1.27;;;;;;;;;;5027694;28;20449;-71
2021/04/07 17:05:06;;;;;;;1.83;0.73;;;;;;;;;;5031451;28;20670;-72